Aviation Digital Data Service (ADDS)

Output produced by METARs form (0422 UTC 25 August 2016)
found at http://www.aviationweather.gov/adds/metars/
 
KBMI 242338Z 2500/2524 24009KT P6SM SCT050 BKN250 
     FM250500 20004KT P6SM VCTS BKN040CB 
     TEMPO 2506/2510 3SM TSRA BR BKN015CB 
     FM251000 VRB03KT 5SM SHRA VCTS SCT010 OVC025CB 
     FM251300 22004KT 4SM BR BKN004 OVC012 
     FM251800 28008KT P6SM BKN045